createdAt,value
2019-04-06T00:00:14.342Z,55.90
2019-04-06T00:02:42.789Z,56.80
2019-04-06T00:05:11.681Z,57.03
2019-04-06T00:07:40.262Z,56.30
2019-04-06T00:10:09.945Z,56.48
2019-04-06T00:12:38.373Z,57.10
2019-04-06T00:15:08.065Z,56.35
2019-04-06T00:17:36.515Z,56.60
2019-04-06T00:20:06.480Z,56.40
2019-04-06T00:22:34.939Z,55.65
2019-04-06T00:25:03.941Z,57.27
2019-04-06T00:27:32.357Z,55.00
2019-04-06T00:30:00.815Z,57.67
2019-04-06T00:32:36.769Z,57.55
2019-04-06T00:35:06.196Z,57.93
2019-04-06T00:37:34.633Z,59.03
2019-04-06T00:40:03.129Z,57.73
2019-04-06T00:42:31.609Z,57.87
2019-04-06T00:45:00.087Z,57.73
2019-04-06T00:47:28.520Z,60.28
2019-04-06T00:49:57.000Z,59.18
2019-04-06T00:52:25.436Z,60.55
2019-04-06T00:54:53.909Z,61.07
2019-04-06T00:57:22.356Z,61.20
2019-04-06T00:59:50.780Z,60.88
2019-04-06T01:02:19.216Z,60.98
2019-04-06T01:04:47.661Z,62.62
2019-04-06T01:07:16.206Z,60.07
2019-04-06T01:09:44.630Z,60.98
2019-04-06T01:12:13.118Z,61.23
2019-04-06T01:14:41.613Z,60.43
2019-04-06T01:17:10.052Z,61.68
2019-04-06T01:19:38.830Z,60.83
2019-04-06T01:22:07.297Z,59.85
2019-04-06T01:24:35.756Z,61.92
2019-04-06T01:27:04.223Z,64.43
2019-04-06T01:29:32.925Z,64.22
2019-04-06T01:32:01.430Z,60.83
2019-04-06T01:34:29.869Z,60.35
2019-04-06T01:36:58.365Z,62.98
2019-04-06T01:39:26.797Z,61.70
2019-04-06T01:41:55.241Z,61.08
2019-04-06T01:44:23.664Z,60.55
2019-04-06T01:46:52.100Z,62.50
2019-04-06T01:49:20.536Z,61.50
2019-04-06T01:51:48.966Z,60.80
2019-04-06T01:54:17.463Z,60.17
2019-04-06T01:56:45.909Z,62.58
2019-04-06T01:59:14.336Z,60.07
2019-04-06T02:01:44.408Z,58.25
2019-04-06T02:04:12.933Z,67.65
2019-04-06T02:06:41.393Z,59.33
2019-04-06T02:09:09.857Z,59.43
2019-04-06T02:11:38.387Z,62.38
2019-04-06T02:14:06.822Z,61.95
2019-04-06T02:16:35.270Z,60.00
2019-04-06T02:19:03.799Z,64.45
2019-04-06T02:21:32.221Z,61.85
2019-04-06T02:24:00.656Z,61.93
2019-04-06T02:26:31.117Z,60.20
2019-04-06T02:28:59.276Z,63.08
2019-04-06T02:31:35.408Z,62.10
2019-04-06T02:34:05.552Z,61.10
2019-04-06T02:36:38.342Z,63.00
2019-04-06T02:39:11.246Z,62.38
2019-04-06T02:41:47.092Z,62.80
2019-04-06T02:44:15.509Z,62.93
2019-04-06T02:46:43.973Z,59.33
2019-04-06T02:49:12.466Z,60.10
2019-04-06T02:51:40.921Z,61.13
2019-04-06T02:54:09.348Z,61.80
2019-04-06T02:56:45.485Z,62.20
2019-04-06T02:59:07.926Z,61.18
2019-04-06T03:01:36.509Z,60.87
2019-04-06T03:04:04.939Z,59.67
2019-04-06T03:06:33.548Z,63.38
2019-04-06T03:09:02.079Z,63.48
2019-04-06T03:11:30.645Z,61.40
2019-04-06T03:13:59.066Z,61.28
2019-04-06T03:16:27.537Z,58.42
2019-04-06T03:18:56.032Z,59.65
2019-04-06T03:21:24.537Z,62.13
2019-04-06T03:23:53.009Z,62.05
2019-04-06T03:26:21.431Z,59.88
2019-04-06T03:28:49.859Z,61.37
2019-04-06T03:31:23.410Z,61.10
2019-04-06T03:33:48.606Z,61.35
2019-04-06T03:36:17.361Z,60.00
2019-04-06T03:38:45.801Z,58.80
2019-04-06T03:41:14.283Z,59.30
2019-04-06T03:43:42.736Z,58.02
2019-04-06T03:46:11.345Z,60.38
2019-04-06T03:48:39.861Z,58.10
2019-04-06T03:51:08.354Z,58.85
2019-04-06T03:53:36.807Z,60.90
2019-04-06T03:56:05.577Z,59.40
2019-04-06T03:58:34.120Z,62.07
2019-04-06T04:01:02.463Z,60.12
2019-04-06T04:03:30.887Z,59.63
2019-04-06T04:05:59.314Z,58.83
2019-04-06T04:08:27.838Z,58.00
2019-04-06T04:10:56.261Z,61.17
2019-04-06T04:13:24.705Z,59.00
2019-04-06T04:15:56.395Z,63.08
2019-04-06T04:18:23.398Z,59.55
2019-04-06T04:20:51.857Z,60.47
2019-04-06T04:23:20.374Z,59.83
2019-04-06T04:25:48.821Z,62.00
2019-04-06T04:28:17.352Z,59.63
2019-04-06T04:30:45.839Z,59.55
2019-04-06T04:33:14.542Z,59.35
2019-04-06T04:35:43.142Z,61.55
2019-04-06T04:38:11.619Z,58.70
2019-04-06T04:40:40.120Z,58.95
2019-04-06T04:43:08.552Z,60.88
2019-04-06T04:45:37.075Z,60.40
2019-04-06T04:48:05.651Z,58.17
2019-04-06T04:50:34.102Z,60.88
2019-04-06T04:53:02.565Z,61.33
2019-04-06T04:55:31.040Z,61.05
2019-04-06T04:57:59.505Z,63.15
2019-04-06T05:00:27.969Z,62.70
2019-04-06T05:02:56.398Z,61.80
2019-04-06T05:05:24.826Z,63.20
2019-04-06T05:07:53.280Z,63.75
2019-04-06T05:10:21.711Z,66.45
2019-04-06T05:12:50.152Z,62.60
2019-04-06T05:15:30.795Z,63.67
2019-04-06T05:17:59.241Z,68.05
2019-04-06T05:20:27.725Z,66.53
2019-04-06T05:22:56.188Z,65.37
2019-04-06T05:25:24.617Z,65.75
2019-04-06T05:27:53.381Z,67.25
2019-04-06T05:30:21.891Z,63.02
2019-04-06T05:32:50.330Z,65.87
2019-04-06T05:35:18.749Z,66.15
2019-04-06T05:37:47.265Z,64.25
2019-04-06T05:40:15.764Z,63.30
2019-04-06T05:42:44.184Z,67.25
2019-04-06T05:45:12.743Z,64.25
2019-04-06T05:47:41.190Z,67.17
2019-04-06T05:50:09.877Z,68.05
2019-04-06T05:52:38.335Z,66.87
2019-04-06T05:55:07.290Z,66.10
2019-04-06T05:57:37.246Z,68.35
2019-04-06T06:00:09.735Z,70.10
2019-04-06T06:02:40.824Z,70.57
2019-04-06T06:05:08.624Z,74.17
2019-04-06T06:07:38.717Z,74.57
2019-04-06T06:10:07.902Z,77.10
2019-04-06T06:12:36.650Z,78.80
2019-04-06T06:15:07.210Z,76.97
2019-04-06T06:17:35.689Z,79.32
2019-04-06T06:20:05.864Z,79.37
2019-04-06T06:22:34.707Z,82.33
2019-04-06T06:25:04.009Z,78.52
2019-04-06T06:27:32.631Z,80.57
2019-04-06T06:30:01.126Z,80.55
2019-04-06T06:32:31.079Z,83.70
2019-04-06T06:34:59.697Z,84.15
2019-04-06T06:37:28.169Z,83.45
2019-04-06T06:39:56.597Z,82.80
2019-04-06T06:42:25.021Z,87.50
2019-04-06T06:44:53.516Z,86.30
2019-04-06T06:47:22.007Z,85.40
2019-04-06T06:49:50.450Z,86.97
2019-04-06T06:52:18.926Z,86.15
2019-04-06T06:54:47.522Z,87.55
2019-04-06T06:57:16.266Z,88.45
2019-04-06T06:59:44.747Z,88.03
2019-04-06T07:02:13.538Z,85.50
2019-04-06T07:04:42.139Z,87.60
2019-04-06T07:07:10.754Z,85.45
2019-04-06T07:09:39.187Z,86.08
2019-04-06T07:12:07.618Z,86.12
2019-04-06T07:14:36.078Z,84.62
2019-04-06T07:17:04.512Z,80.47
2019-04-06T07:19:32.948Z,82.02
2019-04-06T07:22:01.666Z,82.65
2019-04-06T07:24:30.178Z,85.97
2019-04-06T07:26:58.600Z,83.57
2019-04-06T07:29:27.061Z,85.80
2019-04-06T07:31:55.484Z,83.47
2019-04-06T07:34:23.925Z,83.67
2019-04-06T07:36:52.386Z,84.52
2019-04-06T07:39:20.820Z,83.80
2019-04-06T07:41:49.414Z,83.22
2019-04-06T07:44:17.938Z,84.47
2019-04-06T07:46:46.461Z,80.42
2019-04-06T07:49:14.903Z,82.42
2019-04-06T07:51:43.369Z,83.73
2019-04-06T07:54:11.805Z,82.42
2019-04-06T07:56:40.258Z,79.50
2019-04-06T07:59:08.704Z,79.15
2019-04-06T08:01:37.128Z,78.40
2019-04-06T08:04:05.884Z,78.45
2019-04-06T08:06:34.359Z,76.92
2019-04-06T08:09:04.455Z,78.05
2019-04-06T08:11:33.379Z,72.37
2019-04-06T08:14:01.829Z,74.20
2019-04-06T08:16:30.360Z,72.03
2019-04-06T08:18:58.825Z,71.42
2019-04-06T08:21:29.024Z,72.95
2019-04-06T08:23:57.713Z,69.13
2019-04-06T08:26:26.138Z,71.33
2019-04-06T08:29:00.738Z,69.92
2019-04-06T08:31:24.737Z,68.17
2019-04-06T08:33:53.193Z,70.10
2019-04-06T08:36:21.660Z,68.30
2019-04-06T08:38:50.228Z,68.85
2019-04-06T08:41:18.708Z,66.55
2019-04-06T08:43:48.032Z,66.90
2019-04-06T08:46:16.729Z,67.85
2019-04-06T08:48:46.049Z,66.40
2019-04-06T08:51:14.691Z,67.60
2019-04-06T08:53:43.413Z,65.80
2019-04-06T08:56:11.971Z,67.20
2019-04-06T08:58:40.498Z,64.15
2019-04-06T09:01:08.966Z,64.97
2019-04-06T09:03:37.397Z,65.40
2019-04-06T09:06:05.874Z,65.62
2019-04-06T09:08:34.495Z,63.10
2019-04-06T09:11:02.939Z,62.20
2019-04-06T09:13:31.396Z,60.12
2019-04-06T09:15:59.939Z,60.58
2019-04-06T09:18:28.934Z,58.83
2019-04-06T09:20:58.477Z,61.18
2019-04-06T09:23:26.955Z,59.60
2019-04-06T09:25:55.440Z,60.43
2019-04-06T09:28:23.915Z,61.45
2019-04-06T09:30:52.848Z,59.30
2019-04-06T09:33:21.882Z,61.25
2019-04-06T09:35:50.492Z,61.48
2019-04-06T09:38:18.938Z,58.87
2019-04-06T09:40:48.932Z,60.33
2019-04-06T09:43:18.045Z,57.65
2019-04-06T09:45:54.082Z,57.88
2019-04-06T09:48:36.283Z,57.15
2019-04-06T09:51:23.007Z,56.20
2019-04-06T09:54:04.779Z,56.18
2019-04-06T09:56:27.702Z,56.60
2019-04-06T09:59:12.690Z,58.33
2019-04-06T10:01:45.436Z,57.97
2019-04-06T10:04:15.516Z,56.77
2019-04-06T10:06:45.615Z,58.90
2019-04-06T10:09:21.116Z,54.20
2019-04-06T10:12:06.022Z,54.70
2019-04-06T10:14:47.498Z,55.05
2019-04-06T10:17:17.604Z,54.10
2019-04-06T10:19:50.958Z,54.63
2019-04-06T10:22:21.917Z,56.05
2019-04-06T10:25:00.806Z,55.05
2019-04-06T10:27:36.671Z,54.18
2019-04-06T10:30:20.276Z,54.75
2019-04-06T10:32:50.851Z,54.83
2019-04-06T10:35:27.041Z,56.85
2019-04-06T10:37:57.139Z,50.67
2019-04-06T10:40:27.238Z,50.80
2019-04-06T10:43:03.117Z,52.20
2019-04-06T10:45:36.182Z,50.60
2019-04-06T10:48:22.536Z,48.83
2019-04-06T10:51:07.569Z,48.55
2019-04-06T10:53:37.675Z,47.00
2019-04-06T10:56:19.682Z,45.40
2019-04-06T10:58:58.852Z,42.97
2019-04-06T11:01:38.066Z,41.53
2019-04-06T11:04:10.962Z,42.90
2019-04-06T11:06:47.166Z,44.53
2019-04-06T11:09:29.456Z,43.30
2019-04-06T11:12:11.393Z,41.55
2019-04-06T11:14:50.673Z,45.45
2019-04-06T11:17:36.989Z,46.18
2019-04-06T11:20:08.872Z,43.13
2019-04-06T11:22:55.164Z,44.77
2019-04-06T11:25:28.197Z,43.00
2019-04-06T11:28:14.658Z,41.33
2019-04-06T11:30:45.258Z,39.57
2019-04-06T11:33:21.323Z,41.42
2019-04-06T11:36:07.779Z,41.70
2019-04-06T11:38:37.975Z,44.10
2019-04-06T11:41:11.284Z,44.30
2019-04-06T11:43:41.369Z,41.68
2019-04-06T11:46:11.448Z,41.20
2019-04-06T11:48:41.586Z,39.10
2019-04-06T11:51:11.952Z,38.95
2019-04-06T11:53:45.016Z,36.20
2019-04-06T11:56:33.161Z,38.17
2019-04-06T11:59:11.933Z,35.67
2019-04-06T12:01:54.289Z,35.90
2019-04-06T12:04:27.151Z,36.65
2019-04-06T12:06:57.264Z,36.00
2019-04-06T12:09:30.189Z,37.28
2019-04-06T12:12:06.282Z,36.77
2019-04-06T12:14:51.165Z,36.00
2019-04-06T12:17:33.341Z,35.28
2019-04-06T12:20:09.623Z,35.20
2019-04-06T12:22:42.345Z,35.98
2019-04-06T12:25:18.472Z,35.75
2019-04-06T12:27:48.555Z,33.70
2019-04-06T12:30:38.444Z,34.00
2019-04-06T12:33:08.416Z,34.35
2019-04-06T12:35:38.531Z,32.95
2019-04-06T12:38:25.299Z,33.73
2019-04-06T12:41:04.384Z,35.45
2019-04-06T12:43:37.430Z,35.17
2019-04-06T12:46:07.975Z,34.33
2019-04-06T12:48:40.749Z,34.03
2019-04-06T12:51:10.813Z,34.13
2019-04-06T12:53:58.936Z,36.38
2019-04-06T12:56:45.225Z,34.80
2019-04-06T12:59:15.337Z,34.05
2019-04-06T13:01:45.501Z,33.60
2019-04-06T13:04:24.704Z,34.88
2019-04-06T13:07:00.819Z,36.10
2019-04-06T13:09:45.746Z,34.83
2019-04-06T13:12:15.822Z,34.63
2019-04-06T13:14:46.296Z,34.33
2019-04-06T13:17:28.228Z,32.88
2019-04-06T13:20:06.836Z,32.10
2019-04-06T13:22:57.490Z,31.55
2019-04-06T13:25:30.267Z,29.80
2019-04-06T13:28:12.226Z,29.23
2019-04-06T13:31:02.994Z,29.50
2019-04-06T13:33:42.136Z,30.70
2019-04-06T13:36:28.308Z,30.03
2019-04-06T13:39:04.665Z,29.27
2019-04-06T13:41:34.758Z,30.12
2019-04-06T13:44:13.842Z,30.95
2019-04-06T13:46:59.738Z,30.37
2019-04-06T13:49:32.229Z,31.40
2019-04-06T13:52:02.326Z,32.70
2019-04-06T13:54:32.479Z,28.57
2019-04-06T13:57:07.972Z,25.75
2019-04-06T13:59:46.747Z,23.95
2019-04-06T14:02:23.013Z,25.60
2019-04-06T14:04:56.139Z,27.30
2019-04-06T14:07:29.323Z,28.73
2019-04-06T14:09:59.493Z,29.05
2019-04-06T14:12:35.576Z,28.90
2019-04-06T14:15:12.034Z,27.32
2019-04-06T14:17:58.151Z,26.60
2019-04-06T14:20:37.158Z,26.48
2019-04-06T14:23:15.924Z,28.00
2019-04-06T14:25:48.874Z,25.75
2019-04-06T14:28:28.491Z,25.35
2019-04-06T14:31:25.514Z,25.70
2019-04-06T14:34:03.336Z,25.80
2019-04-06T14:36:33.417Z,26.25
2019-04-06T14:39:03.593Z,25.23
2019-04-06T14:41:52.123Z,24.82
2019-04-06T14:44:37.239Z,24.90
2019-04-06T14:47:13.190Z,24.30
2019-04-06T14:49:43.370Z,25.60
2019-04-06T14:52:19.124Z,24.97
2019-04-06T14:55:04.954Z,23.25
2019-04-06T14:57:35.352Z,21.73
2019-04-06T15:00:12.667Z,21.30
2019-04-06T15:02:59.128Z,22.50
2019-04-06T15:05:40.911Z,21.00
2019-04-06T15:08:14.028Z,19.82
2019-04-06T15:10:56.184Z,21.68
2019-04-06T15:13:26.534Z,20.37
2019-04-06T15:15:56.715Z,19.50
2019-04-06T15:18:45.240Z,19.83
2019-04-06T15:21:15.357Z,19.00
2019-04-06T15:23:54.510Z,19.92
2019-04-06T15:26:24.602Z,19.27
2019-04-06T15:28:58.009Z,20.08
2019-04-06T15:31:48.118Z,21.27
2019-04-06T15:34:25.398Z,20.35
2019-04-06T15:37:01.402Z,21.20
2019-04-06T15:39:47.836Z,21.82
2019-04-06T15:42:24.676Z,27.40
2019-04-06T15:44:55.187Z,29.40
2019-04-06T15:47:28.055Z,32.53
2019-04-06T15:50:16.367Z,31.20
2019-04-06T15:52:49.254Z,31.42
2019-04-06T15:55:28.354Z,33.90
2019-04-06T15:58:14.860Z,34.30
2019-04-06T16:00:53.893Z,34.27
2019-04-06T16:03:24.720Z,33.97
2019-04-06T16:05:58.189Z,33.40
2019-04-06T16:08:31.276Z,34.00
2019-04-06T16:11:16.219Z,34.23
2019-04-06T16:13:55.118Z,34.43
2019-04-06T16:16:25.242Z,34.70
2019-04-06T16:19:04.129Z,35.85
2019-04-06T16:21:37.525Z,35.60
2019-04-06T16:24:13.817Z,36.30
2019-04-06T16:26:44.148Z,35.95
2019-04-06T16:29:30.670Z,36.03
2019-04-06T16:32:31.497Z,35.43
2019-04-06T16:35:03.158Z,35.03
2019-04-06T16:37:33.409Z,35.40
2019-04-06T16:40:04.695Z,37.10
2019-04-06T16:42:37.546Z,34.30
2019-04-06T16:45:08.893Z,35.85
2019-04-06T16:47:44.722Z,35.63
2019-04-06T16:50:30.799Z,36.57
2019-04-06T16:53:01.851Z,35.92
2019-04-06T16:55:31.952Z,36.35
2019-04-06T16:58:10.880Z,37.90
2019-04-06T17:00:41.018Z,37.40
2019-04-06T17:03:26.939Z,37.98
2019-04-06T17:06:05.557Z,37.30
2019-04-06T17:08:35.702Z,37.42
2019-04-06T17:11:05.860Z,37.88
2019-04-06T17:13:38.718Z,37.50
2019-04-06T17:16:12.201Z,38.25
2019-04-06T17:19:00.571Z,36.70
2019-04-06T17:21:30.819Z,35.58
2019-04-06T17:24:06.711Z,36.75
2019-04-06T17:26:45.773Z,37.45
2019-04-06T17:29:32.351Z,37.28
2019-04-06T17:32:15.137Z,36.83
2019-04-06T17:34:53.930Z,37.17
2019-04-06T17:37:20.758Z,39.48
2019-04-06T17:40:07.352Z,38.88
2019-04-06T17:42:43.513Z,37.38
2019-04-06T17:45:19.781Z,36.65
2019-04-06T17:47:58.998Z,37.78
2019-04-06T17:50:29.052Z,37.63
2019-04-06T17:53:11.406Z,38.88
2019-04-06T17:55:47.596Z,38.85
2019-04-06T17:58:26.561Z,38.93
2019-04-06T18:01:12.605Z,39.98
2019-04-06T18:03:54.548Z,38.50
2019-04-06T18:06:40.817Z,39.67
2019-04-06T18:09:10.956Z,38.95
2019-04-06T18:11:43.969Z,40.00
2019-04-06T18:14:12.417Z,39.00
2019-04-06T18:16:40.881Z,39.10
2019-04-06T18:19:09.343Z,38.95
2019-04-06T18:21:38.153Z,39.05
2019-04-06T18:24:06.717Z,39.13
2019-04-06T18:26:44.909Z,40.07
2019-04-06T18:29:13.671Z,40.75
2019-04-06T18:31:49.203Z,40.63
2019-04-06T18:34:19.459Z,40.30
2019-04-06T18:36:55.610Z,40.10
2019-04-06T18:39:25.755Z,40.88
2019-04-06T18:41:55.186Z,41.45
2019-04-06T18:44:24.034Z,41.83
2019-04-06T18:46:52.928Z,43.28
2019-04-06T18:49:21.440Z,43.00
2019-04-06T18:51:50.358Z,41.60
2019-04-06T18:54:20.124Z,42.60
2019-04-06T18:56:48.565Z,42.45
2019-04-06T18:59:17.024Z,42.35
2019-04-06T19:01:45.900Z,43.83
2019-04-06T19:04:14.428Z,42.27
2019-04-06T19:06:43.190Z,43.40
2019-04-06T19:09:22.081Z,41.98
2019-04-06T19:11:52.904Z,43.42
2019-04-06T19:14:12.435Z,43.52
2019-04-06T19:16:42.158Z,42.70
2019-04-06T19:19:10.672Z,44.30
2019-04-06T19:21:39.113Z,42.93
2019-04-06T19:24:07.881Z,42.50
2019-04-06T19:26:37.833Z,42.58
2019-04-06T19:29:06.481Z,43.23
2019-04-06T19:31:35.438Z,44.27
2019-04-06T19:34:03.906Z,45.50
2019-04-06T19:36:32.357Z,44.15
2019-04-06T19:39:00.839Z,44.45
2019-04-06T19:41:29.279Z,42.77
2019-04-06T19:43:58.208Z,43.15
2019-04-06T19:46:27.117Z,44.13
2019-04-06T19:48:55.596Z,44.55
2019-04-06T19:51:24.032Z,44.27
2019-04-06T19:53:52.525Z,44.23
2019-04-06T19:56:21.148Z,45.73
2019-04-06T19:58:49.560Z,44.60
2019-04-06T20:01:18.073Z,44.40
2019-04-06T20:03:46.523Z,43.77
2019-04-06T20:06:15.523Z,46.18
2019-04-06T20:08:44.080Z,45.80
2019-04-06T20:11:12.514Z,46.08
2019-04-06T20:13:41.055Z,45.05
2019-04-06T20:16:09.842Z,43.70
2019-04-06T20:18:38.949Z,45.50
2019-04-06T20:21:07.460Z,46.80
2019-04-06T20:23:35.920Z,46.53
2019-04-06T20:26:04.715Z,48.80
2019-04-06T20:28:33.772Z,48.05
2019-04-06T20:31:02.508Z,47.62
2019-04-06T20:33:31.162Z,48.00
2019-04-06T20:35:59.825Z,47.85
2019-04-06T20:38:28.306Z,47.15
2019-04-06T20:40:57.199Z,47.90
2019-04-06T20:43:26.351Z,48.73
2019-04-06T20:45:55.345Z,48.42
2019-04-06T20:48:23.865Z,49.40
2019-04-06T20:50:52.297Z,49.25
2019-04-06T20:53:21.070Z,48.63
2019-04-06T20:55:49.839Z,49.53
2019-04-06T20:58:18.470Z,49.70
2019-04-06T21:00:48.251Z,50.67
2019-04-06T21:03:16.852Z,49.65
2019-04-06T21:05:45.383Z,48.80
2019-04-06T21:08:14.401Z,48.70
2019-04-06T21:10:43.066Z,50.17
2019-04-06T21:13:11.569Z,50.45
2019-04-06T21:15:40.604Z,50.80
2019-04-06T21:18:09.386Z,50.12
2019-04-06T21:20:38.044Z,51.10
2019-04-06T21:23:06.527Z,52.25
2019-04-06T21:25:35.337Z,52.08
2019-04-06T21:28:04.238Z,52.10
2019-04-06T21:30:33.685Z,51.05
2019-04-06T21:33:02.109Z,51.65
2019-04-06T21:35:31.039Z,52.88
2019-04-06T21:38:00.775Z,52.33
2019-04-06T21:40:29.296Z,53.75
2019-04-06T21:42:57.768Z,52.70
2019-04-06T21:45:26.302Z,52.62
2019-04-06T21:47:55.091Z,53.00
2019-04-06T21:50:24.023Z,53.47
2019-04-06T21:52:52.943Z,52.03
2019-04-06T21:55:21.879Z,54.90
2019-04-06T21:57:50.894Z,53.75
2019-04-06T22:00:21.864Z,51.93
2019-04-06T22:02:51.383Z,55.23
2019-04-06T22:05:20.245Z,53.28
2019-04-06T22:07:52.175Z,54.53
2019-04-06T22:10:18.869Z,52.65
2019-04-06T22:12:47.996Z,54.13
2019-04-06T22:15:16.885Z,53.78
2019-04-06T22:17:45.513Z,54.88
2019-04-06T22:20:14.126Z,54.80
2019-04-06T22:22:42.682Z,54.75
2019-04-06T22:25:11.393Z,53.78
2019-04-06T22:27:39.838Z,51.85
2019-04-06T22:30:09.737Z,52.65
2019-04-06T22:32:38.217Z,50.48
2019-04-06T22:35:07.431Z,52.10
2019-04-06T22:37:36.196Z,52.38
2019-04-06T22:40:06.344Z,52.88
2019-04-06T22:42:35.254Z,51.37
2019-04-06T22:45:05.463Z,52.43
2019-04-06T22:47:33.890Z,52.73
2019-04-06T22:50:02.711Z,51.90
2019-04-06T22:52:31.649Z,51.23
2019-04-06T22:55:00.473Z,51.58
2019-04-06T22:57:29.472Z,50.90
2019-04-06T22:59:58.583Z,51.60
2019-04-06T23:02:29.273Z,52.15
2019-04-06T23:05:05.276Z,50.73
2019-04-06T23:07:33.716Z,49.90
2019-04-06T23:10:02.848Z,51.35
2019-04-06T23:12:31.492Z,51.73
2019-04-06T23:15:00.316Z,51.73
2019-04-06T23:17:28.803Z,50.50
2019-04-06T23:19:57.801Z,51.88
2019-04-06T23:22:26.322Z,51.53
2019-04-06T23:24:55.031Z,50.03
2019-04-06T23:27:24.262Z,51.33
2019-04-06T23:29:53.483Z,49.55
2019-04-06T23:32:21.950Z,50.70
2019-04-06T23:34:59.454Z,52.58
2019-04-06T23:37:21.126Z,51.60
2019-04-06T23:39:50.419Z,52.37
2019-04-06T23:42:19.440Z,52.25
2019-04-06T23:44:47.939Z,51.88
2019-04-06T23:47:16.522Z,53.02
2019-04-06T23:49:45.040Z,52.73
2019-04-06T23:52:13.693Z,52.55
2019-04-06T23:54:42.143Z,52.17
2019-04-06T23:57:10.593Z,53.33
2019-04-06T23:59:39.540Z,54.60
